sensor_id;sensor_type;location;lat;lon;timestamp;pressure;altitude;pressure_sealevel;temperature;humidity
65534;BME280;53640;55.838;37.184;2023-07-13T00:00:48;98283.63;;;10.34;64.55
65534;BME280;53640;55.838;37.184;2023-07-13T00:03:16;98259.03;;;10.18;64.52
65534;BME280;53640;55.838;37.184;2023-07-13T00:05:43;98279.78;;;10.29;64.23
65534;BME280;53640;55.838;37.184;2023-07-13T00:08:10;98264.28;;;10.25;64.59
65534;BME280;53640;55.838;37.184;2023-07-13T00:10:41;98288.00;;;10.35;64.68
65534;BME280;53640;55.838;37.184;2023-07-13T00:13:08;98277.28;;;10.40;64.67
65534;BME280;53640;55.838;37.184;2023-07-13T00:15:36;98286.47;;;10.39;64.46
65534;BME280;53640;55.838;37.184;2023-07-13T00:18:04;98252.88;;;10.23;64.67
65534;BME280;53640;55.838;37.184;2023-07-13T00:20:30;98291.34;;;10.42;64.67
65534;BME280;53640;55.838;37.184;2023-07-13T00:22:56;98280.78;;;10.40;64.60
65534;BME280;53640;55.838;37.184;2023-07-13T00:25:25;98279.22;;;10.44;65.04
65534;BME280;53640;55.838;37.184;2023-07-13T00:27:55;98265.84;;;10.38;64.62
65534;BME280;53640;55.838;37.184;2023-07-13T00:30:22;98262.59;;;10.36;64.87
65534;BME280;53640;55.838;37.184;2023-07-13T00:32:50;98235.28;;;10.20;64.44
65534;BME280;53640;55.838;37.184;2023-07-13T00:35:17;98273.81;;;10.44;64.38
65534;BME280;53640;55.838;37.184;2023-07-13T00:37:43;98275.22;;;10.47;64.58
65534;BME280;53640;55.838;37.184;2023-07-13T00:40:12;98275.31;;;10.52;64.67
65534;BME280;53640;55.838;37.184;2023-07-13T00:42:39;98251.44;;;10.32;64.54
65534;BME280;53640;55.838;37.184;2023-07-13T00:47:40;98252.84;;;10.35;64.21
65534;BME280;53640;55.838;37.184;2023-07-13T00:50:12;98281.78;;;10.51;64.68
65534;BME280;53640;55.838;37.184;2023-07-13T00:52:45;98264.91;;;10.44;64.27
65534;BME280;53640;55.838;37.184;2023-07-13T00:55:13;98249.53;;;10.33;64.46
65534;BME280;53640;55.838;37.184;2023-07-13T00:57:43;98260.69;;;10.36;64.30
65534;BME280;53640;55.838;37.184;2023-07-13T01:00:10;98280.97;;;10.50;64.59
65534;BME280;53640;55.838;37.184;2023-07-13T01:02:41;98282.63;;;10.51;64.34
65534;BME280;53640;55.838;37.184;2023-07-13T01:05:16;98269.56;;;10.48;64.37
65534;BME280;53640;55.838;37.184;2023-07-13T01:07:44;98258.56;;;10.38;64.57
65534;BME280;53640;55.838;37.184;2023-07-13T01:10:12;98252.59;;;10.36;64.62
65534;BME280;53640;55.838;37.184;2023-07-13T01:12:39;98258.19;;;10.46;64.70
65534;BME280;53640;55.838;37.184;2023-07-13T01:18:08;98212.22;;;10.18;64.53
65534;BME280;53640;55.838;37.184;2023-07-13T01:20:36;98259.34;;;10.50;64.53
65534;BME280;53640;55.838;37.184;2023-07-13T01:23:10;98245.38;;;10.42;64.55
65534;BME280;53640;55.838;37.184;2023-07-13T01:25:39;98253.91;;;10.50;64.42
65534;BME280;53640;55.838;37.184;2023-07-13T01:28:07;98256.63;;;10.50;64.38
65534;BME280;53640;55.838;37.184;2023-07-13T01:30:36;98183.84;;;10.03;64.47
65534;BME280;53640;55.838;37.184;2023-07-13T01:33:09;98253.66;;;10.52;64.57
65534;BME280;53640;55.838;37.184;2023-07-13T01:35:36;98254.41;;;10.47;64.55
65534;BME280;53640;55.838;37.184;2023-07-13T01:38:02;98246.53;;;10.46;64.56
65534;BME280;53640;55.838;37.184;2023-07-13T01:40:29;98263.66;;;10.51;64.53
65534;BME280;53640;55.838;37.184;2023-07-13T01:42:58;98250.16;;;10.51;64.58
65534;BME280;53640;55.838;37.184;2023-07-13T01:45:26;98237.25;;;10.42;64.43
65534;BME280;53640;55.838;37.184;2023-07-13T01:47:52;98186.75;;;10.14;64.77
65534;BME280;53640;55.838;37.184;2023-07-13T01:50:19;98188.38;;;10.15;64.85
65534;BME280;53640;55.838;37.184;2023-07-13T01:52:46;98235.13;;;10.44;64.58
65534;BME280;53640;55.838;37.184;2023-07-13T01:55:14;98239.00;;;10.48;64.75
65534;BME280;53640;55.838;37.184;2023-07-13T01:57:41;98247.44;;;10.51;64.59
65534;BME280;53640;55.838;37.184;2023-07-13T02:00:10;98229.66;;;10.39;64.71
65534;BME280;53640;55.838;37.184;2023-07-13T02:02:43;98240.06;;;10.47;64.55
65534;BME280;53640;55.838;37.184;2023-07-13T02:05:12;98211.94;;;10.31;64.42
65534;BME280;53640;55.838;37.184;2023-07-13T02:07:39;98219.38;;;10.41;64.83
65534;BME280;53640;55.838;37.184;2023-07-13T02:10:08;98213.97;;;10.41;64.67
65534;BME280;53640;55.838;37.184;2023-07-13T02:12:35;98224.66;;;10.47;64.62
65534;BME280;53640;55.838;37.184;2023-07-13T02:15:04;98233.31;;;10.49;64.60
65534;BME280;53640;55.838;37.184;2023-07-13T02:17:35;98201.13;;;10.31;64.67
65534;BME280;53640;55.838;37.184;2023-07-13T02:20:03;98221.34;;;10.45;64.99
65534;BME280;53640;55.838;37.184;2023-07-13T02:22:33;98211.75;;;10.38;64.50
65534;BME280;53640;55.838;37.184;2023-07-13T02:25:01;98220.19;;;10.41;64.60
65534;BME280;53640;55.838;37.184;2023-07-13T02:27:27;98208.72;;;10.34;64.81
65534;BME280;53640;55.838;37.184;2023-07-13T02:29:54;98223.81;;;10.47;65.04
65534;BME280;53640;55.838;37.184;2023-07-13T02:32:22;98199.22;;;10.32;65.00
65534;BME280;53640;55.838;37.184;2023-07-13T02:34:52;98214.78;;;10.41;64.93
65534;BME280;53640;55.838;37.184;2023-07-13T02:37:19;98177.06;;;10.18;64.85
65534;BME280;53640;55.838;37.184;2023-07-13T02:39:46;98171.59;;;10.13;65.12
65534;BME280;53640;55.838;37.184;2023-07-13T02:42:14;98181.75;;;10.22;65.44
65534;BME280;53640;55.838;37.184;2023-07-13T02:44:42;98223.00;;;10.46;65.25
65534;BME280;53640;55.838;37.184;2023-07-13T02:47:10;98215.72;;;10.47;65.29
65534;BME280;53640;55.838;37.184;2023-07-13T02:49:37;98225.72;;;10.46;65.21
65534;BME280;53640;55.838;37.184;2023-07-13T02:52:04;98217.34;;;10.48;65.45
65534;BME280;53640;55.838;37.184;2023-07-13T02:54:31;98203.16;;;10.41;65.27
65534;BME280;53640;55.838;37.184;2023-07-13T02:56:58;98191.94;;;10.32;65.29
65534;BME280;53640;55.838;37.184;2023-07-13T02:59:26;98194.63;;;10.32;65.28
65534;BME280;53640;55.838;37.184;2023-07-13T03:01:53;98188.16;;;10.33;65.17
65534;BME280;53640;55.838;37.184;2023-07-13T03:04:19;98220.72;;;10.55;65.32
65534;BME280;53640;55.838;37.184;2023-07-13T03:06:48;98214.16;;;10.51;65.29
65534;BME280;53640;55.838;37.184;2023-07-13T03:09:17;98206.59;;;10.53;65.36
65534;BME280;53640;55.838;37.184;2023-07-13T03:11:49;98207.19;;;10.55;65.34
65534;BME280;53640;55.838;37.184;2023-07-13T03:14:35;98207.50;;;10.59;65.26
65534;BME280;53640;55.838;37.184;2023-07-13T03:17:04;98209.06;;;10.54;65.16
65534;BME280;53640;55.838;37.184;2023-07-13T03:19:37;98193.81;;;10.48;65.41
65534;BME280;53640;55.838;37.184;2023-07-13T03:22:04;98190.78;;;10.45;65.54
65534;BME280;53640;55.838;37.184;2023-07-13T03:24:33;98215.69;;;10.64;65.55
65534;BME280;53640;55.838;37.184;2023-07-13T03:27:03;98198.81;;;10.57;65.70
65534;BME280;53640;55.838;37.184;2023-07-13T03:29:31;98231.06;;;10.75;65.63
65534;BME280;53640;55.838;37.184;2023-07-13T03:31:58;98201.84;;;10.60;65.45
65534;BME280;53640;55.838;37.184;2023-07-13T03:34:25;98211.06;;;10.76;65.32
65534;BME280;53640;55.838;37.184;2023-07-13T03:36:56;98221.38;;;10.79;65.62
65534;BME280;53640;55.838;37.184;2023-07-13T03:39:24;98233.13;;;10.85;65.68
65534;BME280;53640;55.838;37.184;2023-07-13T03:41:54;98212.13;;;10.75;65.43
65534;BME280;53640;55.838;37.184;2023-07-13T03:44:22;98240.00;;;10.92;65.50
65534;BME280;53640;55.838;37.184;2023-07-13T03:46:53;98239.53;;;10.95;65.41
65534;BME280;53640;55.838;37.184;2023-07-13T03:49:21;98223.44;;;10.89;65.22
65534;BME280;53640;55.838;37.184;2023-07-13T03:51:47;98234.44;;;10.99;65.30
65534;BME280;53640;55.838;37.184;2023-07-13T03:54:15;98217.22;;;10.88;65.34
65534;BME280;53640;55.838;37.184;2023-07-13T03:56:43;98226.03;;;11.00;65.24
65534;BME280;53640;55.838;37.184;2023-07-13T03:59:10;98220.38;;;11.02;64.90
65534;BME280;53640;55.838;37.184;2023-07-13T04:01:38;98206.44;;;10.93;64.61
65534;BME280;53640;55.838;37.184;2023-07-13T04:04:06;98234.97;;;11.18;64.92
65534;BME280;53640;55.838;37.184;2023-07-13T04:06:33;98217.75;;;11.07;64.86
65534;BME280;53640;55.838;37.184;2023-07-13T04:09:02;98231.00;;;11.25;64.26
65534;BME280;53640;55.838;37.184;2023-07-13T04:11:33;98244.44;;;11.37;64.38
65534;BME280;53640;55.838;37.184;2023-07-13T04:14:02;98223.44;;;11.27;64.65
65534;BME280;53640;55.838;37.184;2023-07-13T04:16:36;98151.09;;;10.84;63.85
65534;BME280;53640;55.838;37.184;2023-07-13T04:19:02;98203.16;;;11.30;63.78
65534;BME280;53640;55.838;37.184;2023-07-13T04:21:30;98197.81;;;11.35;63.98
65534;BME280;53640;55.838;37.184;2023-07-13T04:23:58;98233.84;;;11.58;63.61
65534;BME280;53640;55.838;37.184;2023-07-13T04:26:25;98221.44;;;11.62;64.53
65534;BME280;53640;55.838;37.184;2023-07-13T04:28:54;98221.00;;;11.70;64.31
65534;BME280;53640;55.838;37.184;2023-07-13T04:31:21;98214.50;;;11.71;63.69
65534;BME280;53640;55.838;37.184;2023-07-13T04:33:48;98205.47;;;11.65;63.82
65534;BME280;53640;55.838;37.184;2023-07-13T04:36:18;98217.88;;;11.78;64.04
65534;BME280;53640;55.838;37.184;2023-07-13T04:38:46;98211.34;;;11.74;63.61
65534;BME280;53640;55.838;37.184;2023-07-13T04:41:14;98221.34;;;11.73;63.84
65534;BME280;53640;55.838;37.184;2023-07-13T04:43:41;98235.28;;;11.82;63.49
65534;BME280;53640;55.838;37.184;2023-07-13T04:46:13;98212.63;;;11.71;63.28
65534;BME280;53640;55.838;37.184;2023-07-13T04:48:40;98228.00;;;11.88;63.19
65534;BME280;53640;55.838;37.184;2023-07-13T04:51:10;98232.72;;;11.97;63.39
65534;BME280;53640;55.838;37.184;2023-07-13T04:53:45;98228.63;;;11.95;63.65
65534;BME280;53640;55.838;37.184;2023-07-13T04:56:13;98183.38;;;11.73;63.81
65534;BME280;53640;55.838;37.184;2023-07-13T04:58:40;98233.91;;;12.07;63.62
65534;BME280;53640;55.838;37.184;2023-07-13T05:01:07;98232.31;;;12.11;63.57
65534;BME280;53640;55.838;37.184;2023-07-13T05:03:35;98253.00;;;12.17;63.83
65534;BME280;53640;55.838;37.184;2023-07-13T05:06:04;98252.31;;;12.27;62.70
65534;BME280;53640;55.838;37.184;2023-07-13T05:08:31;98239.06;;;12.30;63.06
65534;BME280;53640;55.838;37.184;2023-07-13T05:11:02;98229.00;;;12.31;63.15
65534;BME280;53640;55.838;37.184;2023-07-13T05:13:29;98232.56;;;12.36;62.09
65534;BME280;53640;55.838;37.184;2023-07-13T05:16:03;98223.34;;;12.37;62.36
65534;BME280;53640;55.838;37.184;2023-07-13T05:18:31;98235.94;;;12.48;62.38
65534;BME280;53640;55.838;37.184;2023-07-13T05:20:59;98219.28;;;12.35;61.78
65534;BME280;53640;55.838;37.184;2023-07-13T05:23:27;98207.59;;;12.34;61.45
65534;BME280;53640;55.838;37.184;2023-07-13T05:25:53;98201.94;;;12.41;61.38
65534;BME280;53640;55.838;37.184;2023-07-13T05:28:21;98224.66;;;12.62;61.71
65534;BME280;53640;55.838;37.184;2023-07-13T05:30:48;98224.44;;;12.68;61.65
65534;BME280;53640;55.838;37.184;2023-07-13T05:33:16;98205.09;;;12.60;61.40
65534;BME280;53640;55.838;37.184;2023-07-13T05:35:42;98204.94;;;12.71;60.96
65534;BME280;53640;55.838;37.184;2023-07-13T05:38:09;98221.13;;;12.93;60.84
65534;BME280;53640;55.838;37.184;2023-07-13T05:40:37;98238.06;;;13.06;59.78
65534;BME280;53640;55.838;37.184;2023-07-13T05:43:05;98232.34;;;13.07;59.73
65534;BME280;53640;55.838;37.184;2023-07-13T05:45:31;98220.97;;;13.10;59.57
65534;BME280;53640;55.838;37.184;2023-07-13T05:47:57;98203.59;;;13.16;59.33
65534;BME280;53640;55.838;37.184;2023-07-13T05:50:26;98220.81;;;13.32;58.06
65534;BME280;53640;55.838;37.184;2023-07-13T05:52:53;98223.06;;;13.45;59.01
65534;BME280;53640;55.838;37.184;2023-07-13T05:55:20;98216.00;;;13.50;58.76
65534;BME280;53640;55.838;37.184;2023-07-13T05:57:46;98211.72;;;13.64;58.14
65534;BME280;53640;55.838;37.184;2023-07-13T06:00:14;98191.59;;;13.60;58.54
65534;BME280;53640;55.838;37.184;2023-07-13T06:02:41;98190.78;;;13.64;57.08
65534;BME280;53640;55.838;37.184;2023-07-13T06:05:08;98221.09;;;13.88;55.95
65534;BME280;53640;55.838;37.184;2023-07-13T06:07:34;98199.53;;;13.77;56.28
65534;BME280;53640;55.838;37.184;2023-07-13T06:10:02;98200.41;;;13.87;56.31
65534;BME280;53640;55.838;37.184;2023-07-13T06:12:30;98211.34;;;14.08;55.99
65534;BME280;53640;55.838;37.184;2023-07-13T06:14:56;98184.66;;;14.05;56.63
65534;BME280;53640;55.838;37.184;2023-07-13T06:17:24;98207.53;;;14.29;56.33
65534;BME280;53640;55.838;37.184;2023-07-13T06:19:50;98206.75;;;14.39;55.81
65534;BME280;53640;55.838;37.184;2023-07-13T06:22:17;98193.41;;;14.37;54.71
65534;BME280;53640;55.838;37.184;2023-07-13T06:24:43;98177.06;;;14.32;54.77
65534;BME280;53640;55.838;37.184;2023-07-13T06:27:09;98206.75;;;14.49;54.14
65534;BME280;53640;55.838;37.184;2023-07-13T06:29:44;98206.50;;;14.46;53.74
65534;BME280;53640;55.838;37.184;2023-07-13T06:32:11;98181.41;;;14.28;53.70
65534;BME280;53640;55.838;37.184;2023-07-13T06:34:37;98211.13;;;14.45;54.18
65534;BME280;53640;55.838;37.184;2023-07-13T06:37:04;98181.41;;;14.28;54.05
65534;BME280;53640;55.838;37.184;2023-07-13T06:39:30;98182.78;;;14.31;53.46
65534;BME280;53640;55.838;37.184;2023-07-13T06:41:56;98208.66;;;14.44;53.94
65534;BME280;53640;55.838;37.184;2023-07-13T06:44:24;98210.84;;;14.52;54.26
65534;BME280;53640;55.838;37.184;2023-07-13T06:46:51;98209.75;;;14.48;53.37
65534;BME280;53640;55.838;37.184;2023-07-13T06:49:23;98210.31;;;14.45;52.58
65534;BME280;53640;55.838;37.184;2023-07-13T06:51:49;98148.22;;;14.11;53.46
65534;BME280;53640;55.838;37.184;2023-07-13T06:54:16;98157.47;;;14.15;53.47
65534;BME280;53640;55.838;37.184;2023-07-13T06:56:42;98201.28;;;14.44;52.63
65534;BME280;53640;55.838;37.184;2023-07-13T06:59:08;98180.06;;;14.36;53.45
65534;BME280;53640;55.838;37.184;2023-07-13T07:01:35;98200.50;;;14.54;53.81
65534;BME280;53640;55.838;37.184;2023-07-13T07:04:03;98181.97;;;14.40;53.39
65534;BME280;53640;55.838;37.184;2023-07-13T07:06:39;98142.22;;;14.19;53.70
65534;BME280;53640;55.838;37.184;2023-07-13T07:09:24;98093.78;;;13.85;52.39
65534;BME280;53640;55.838;37.184;2023-07-13T07:12:03;98095.41;;;13.86;52.06
65534;BME280;53640;55.838;37.184;2023-07-13T07:14:30;98140.06;;;14.16;52.58
65534;BME280;53640;55.838;37.184;2023-07-13T07:16:57;98106.28;;;13.91;53.27
65534;BME280;53640;55.838;37.184;2023-07-13T07:19:24;98122.88;;;14.10;52.96
65534;BME280;53640;55.838;37.184;2023-07-13T07:21:53;98218.47;;;14.60;53.69
65534;BME280;53640;55.838;37.184;2023-07-13T07:24:20;98094.03;;;13.89;53.84
65534;BME280;53640;55.838;37.184;2023-07-13T07:26:47;98166.72;;;14.24;53.70
65534;BME280;53640;55.838;37.184;2023-07-13T07:29:13;98163.19;;;14.19;53.62
65534;BME280;53640;55.838;37.184;2023-07-13T07:31:42;98216.28;;;14.52;52.73
65534;BME280;53640;55.838;37.184;2023-07-13T07:34:13;98141.13;;;14.05;52.59
65534;BME280;53640;55.838;37.184;2023-07-13T07:36:40;98205.94;;;14.38;53.60
65534;BME280;53640;55.838;37.184;2023-07-13T07:39:07;98228.81;;;14.58;53.54
65534;BME280;53640;55.838;37.184;2023-07-13T07:42:07;98202.66;;;14.47;53.78
65534;BME280;53640;55.838;37.184;2023-07-13T07:45:08;98158.53;;;14.14;53.36
65534;BME280;53640;55.838;37.184;2023-07-13T07:47:38;98135.13;;;13.92;53.81
65534;BME280;53640;55.838;37.184;2023-07-13T07:50:05;98139.47;;;13.88;53.46
65534;BME280;53640;55.838;37.184;2023-07-13T07:52:32;98178.69;;;14.18;53.40
65534;BME280;53640;55.838;37.184;2023-07-13T07:54:59;98191.50;;;14.23;53.71
65534;BME280;53640;55.838;37.184;2023-07-13T07:57:25;98193.09;;;14.13;54.26
65534;BME280;53640;55.838;37.184;2023-07-13T07:59:52;98161.22;;;13.83;54.19
65534;BME280;53640;55.838;37.184;2023-07-13T08:02:18;98185.19;;;14.07;53.66
65534;BME280;53640;55.838;37.184;2023-07-13T08:04:45;98188.72;;;14.02;53.76
65534;BME280;53640;55.838;37.184;2023-07-13T08:07:12;98188.19;;;14.00;53.94
65534;BME280;53640;55.838;37.184;2023-07-13T08:09:39;98210.78;;;14.01;53.48
65534;BME280;53640;55.838;37.184;2023-07-13T08:12:05;98171.28;;;13.78;54.07
65534;BME280;53640;55.838;37.184;2023-07-13T08:14:33;98146.69;;;13.57;53.96
65534;BME280;53640;55.838;37.184;2023-07-13T08:17:00;98182.38;;;13.66;56.91
65534;BME280;53640;55.838;37.184;2023-07-13T08:19:27;98170.91;;;13.59;54.82
65534;BME280;53640;55.838;37.184;2023-07-13T08:21:55;98171.41;;;13.45;55.24
65534;BME280;53640;55.838;37.184;2023-07-13T08:24:23;98129.69;;;13.14;56.32
65534;BME280;53640;55.838;37.184;2023-07-13T08:26:52;98206.56;;;13.67;55.83
65534;BME280;53640;55.838;37.184;2023-07-13T08:29:18;98126.97;;;13.14;56.80
65534;BME280;53640;55.838;37.184;2023-07-13T08:31:45;98248.03;;;13.90;56.80
65534;BME280;53640;55.838;37.184;2023-07-13T08:34:11;98246.91;;;13.86;57.24
65534;BME280;53640;55.838;37.184;2023-07-13T08:36:38;98249.13;;;13.89;56.62
65534;BME280;53640;55.838;37.184;2023-07-13T08:39:06;98195.94;;;13.61;57.00
65534;BME280;53640;55.838;37.184;2023-07-13T08:41:34;98159.44;;;13.47;56.65
65534;BME280;53640;55.838;37.184;2023-07-13T08:44:03;98227.31;;;13.84;57.13
65534;BME280;53640;55.838;37.184;2023-07-13T08:46:36;98171.34;;;13.35;58.27
65534;BME280;53640;55.838;37.184;2023-07-13T08:49:15;98249.34;;;13.87;57.37
65534;BME280;53640;55.838;37.184;2023-07-13T08:51:50;98205.75;;;13.62;58.03
65534;BME280;53640;55.838;37.184;2023-07-13T08:54:29;98246.38;;;13.89;57.80
65534;BME280;53640;55.838;37.184;2023-07-13T08:56:58;98231.13;;;13.78;58.17
65534;BME280;53640;55.838;37.184;2023-07-13T08:59:30;98230.84;;;13.79;58.03
65534;BME280;53640;55.838;37.184;2023-07-13T09:04:58;98250.41;;;13.76;59.44
65534;BME280;53640;55.838;37.184;2023-07-13T09:07:50;98215.25;;;13.59;58.28
65534;BME280;53640;55.838;37.184;2023-07-13T09:10:27;98222.06;;;13.67;59.00
65534;BME280;53640;55.838;37.184;2023-07-13T09:15:55;98248.28;;;13.88;58.09
65534;BME280;53640;55.838;37.184;2023-07-13T09:18:37;98242.28;;;13.81;58.22
65534;BME280;53640;55.838;37.184;2023-07-13T09:21:17;98232.19;;;13.77;58.72
65534;BME280;53640;55.838;37.184;2023-07-13T09:23:44;98243.63;;;13.84;58.69
65534;BME280;53640;55.838;37.184;2023-07-13T09:26:21;98253.47;;;13.90;58.89
65534;BME280;53640;55.838;37.184;2023-07-13T09:28:51;98260.81;;;13.95;58.30
65534;BME280;53640;55.838;37.184;2023-07-13T09:31:34;98258.91;;;13.90;58.57
65534;BME280;53640;55.838;37.184;2023-07-13T09:34:09;98239.00;;;13.79;58.85
65534;BME280;53640;55.838;37.184;2023-07-13T09:36:37;98244.72;;;13.78;58.75
65534;BME280;53640;55.838;37.184;2023-07-13T09:39:14;98240.00;;;13.68;59.23
65534;BME280;53640;55.838;37.184;2023-07-13T09:44:18;98254.50;;;13.74;59.61
65534;BME280;53640;55.838;37.184;2023-07-13T09:46:55;98266.19;;;13.79;59.61
65534;BME280;53640;55.838;37.184;2023-07-13T09:49:27;98243.53;;;13.63;60.11
65534;BME280;53640;55.838;37.184;2023-07-13T09:52:10;98262.28;;;13.60;60.15
65534;BME280;53640;55.838;37.184;2023-07-13T09:54:37;98262.56;;;13.58;61.21
65534;BME280;53640;55.838;37.184;2023-07-13T09:57:30;98265.50;;;13.52;60.50
65534;BME280;53640;55.838;37.184;2023-07-13T09:59:57;98260.31;;;13.50;61.30
65534;BME280;53640;55.838;37.184;2023-07-13T10:02:30;98263.81;;;13.45;61.20
65534;BME280;53640;55.838;37.184;2023-07-13T10:07:32;98267.13;;;13.48;61.02
65534;BME280;53640;55.838;37.184;2023-07-13T10:10:14;98267.63;;;13.44;61.51
65534;BME280;53640;55.838;37.184;2023-07-13T10:12:41;98267.63;;;13.39;61.13
65534;BME280;53640;55.838;37.184;2023-07-13T10:15:23;98265.38;;;13.31;61.24
65534;BME280;53640;55.838;37.184;2023-07-13T10:17:54;98245.94;;;13.07;61.86
65534;BME280;53640;55.838;37.184;2023-07-13T10:20:21;98268.03;;;13.21;61.58
65534;BME280;53640;55.838;37.184;2023-07-13T10:22:59;98233.81;;;12.83;61.59
65534;BME280;53640;55.838;37.184;2023-07-13T10:25:33;98267.66;;;13.07;61.87
65534;BME280;53640;55.838;37.184;2023-07-13T10:28:31;98261.25;;;12.86;62.14
65534;BME280;53640;55.838;37.184;2023-07-13T10:31:01;98264.53;;;12.88;62.57
65534;BME280;53640;55.838;37.184;2023-07-13T10:33:28;98258.47;;;12.76;63.04
65534;BME280;53640;55.838;37.184;2023-07-13T10:36:09;98280.28;;;12.86;63.25
65534;BME280;53640;55.838;37.184;2023-07-13T10:38:39;98282.44;;;12.84;63.14
65534;BME280;53640;55.838;37.184;2023-07-13T10:41:11;98241.44;;;12.54;63.65
65534;BME280;53640;55.838;37.184;2023-07-13T10:43:42;98222.06;;;12.45;63.92
65534;BME280;53640;55.838;37.184;2023-07-13T10:46:14;98275.59;;;12.77;64.17
65534;BME280;53640;55.838;37.184;2023-07-13T10:48:43;98285.03;;;12.74;64.14
65534;BME280;53640;55.838;37.184;2023-07-13T10:51:13;98271.16;;;12.70;64.43
65534;BME280;53640;55.838;37.184;2023-07-13T10:53:40;98242.78;;;12.56;64.52
65534;BME280;53640;55.838;37.184;2023-07-13T10:56:29;98272.38;;;12.80;64.52
65534;BME280;53640;55.838;37.184;2023-07-13T11:01:55;98268.56;;;12.81;64.65
65534;BME280;53640;55.838;37.184;2023-07-13T11:04:23;98268.03;;;12.84;64.56
65534;BME280;53640;55.838;37.184;2023-07-13T11:06:58;98264.22;;;12.80;64.92
65534;BME280;53640;55.838;37.184;2023-07-13T11:15:03;98264.84;;;12.92;65.01
65534;BME280;53640;55.838;37.184;2023-07-13T11:20:20;98255.81;;;12.86;65.63
65534;BME280;53640;55.838;37.184;2023-07-13T11:22:52;98265.38;;;12.94;65.53
65534;BME280;53640;55.838;37.184;2023-07-13T11:25:27;98269.75;;;12.95;65.21
65534;BME280;53640;55.838;37.184;2023-07-13T11:28:18;98245.50;;;12.83;65.43
65534;BME280;53640;55.838;37.184;2023-07-13T11:36:15;98256.69;;;12.92;65.79
65534;BME280;53640;55.838;37.184;2023-07-13T11:44:05;98260.91;;;13.10;65.96
65534;BME280;53640;55.838;37.184;2023-07-13T11:46:32;98259.25;;;13.09;65.62
65534;BME280;53640;55.838;37.184;2023-07-13T11:48:58;98253.00;;;13.08;66.15
65534;BME280;53640;55.838;37.184;2023-07-13T11:51:32;98255.72;;;13.08;66.24
65534;BME280;53640;55.838;37.184;2023-07-13T11:54:05;98258.44;;;13.08;66.55
65534;BME280;53640;55.838;37.184;2023-07-13T11:56:34;98260.81;;;13.00;66.33
65534;BME280;53640;55.838;37.184;2023-07-13T11:59:07;98257.03;;;13.01;66.07
65534;BME280;53640;55.838;37.184;2023-07-13T12:01:36;98237.66;;;12.87;65.87
65534;BME280;53640;55.838;37.184;2023-07-13T12:04:24;98266.03;;;13.06;65.91
65534;BME280;53640;55.838;37.184;2023-07-13T12:07:06;98258.09;;;13.00;65.95
65534;BME280;53640;55.838;37.184;2023-07-13T12:09:36;98270.66;;;13.06;66.35
65534;BME280;53640;55.838;37.184;2023-07-13T12:12:02;98261.09;;;12.98;66.26
65534;BME280;53640;55.838;37.184;2023-07-13T12:14:33;98265.75;;;13.03;66.20
65534;BME280;53640;55.838;37.184;2023-07-13T12:17:00;98246.38;;;12.94;66.21
65534;BME280;53640;55.838;37.184;2023-07-13T12:19:27;98236.28;;;12.84;66.51
65534;BME280;53640;55.838;37.184;2023-07-13T12:21:56;98245.84;;;12.97;66.67
65534;BME280;53640;55.838;37.184;2023-07-13T12:24:24;98226.22;;;12.85;66.38
65534;BME280;53640;55.838;37.184;2023-07-13T12:27:00;98240.69;;;12.90;66.53
65534;BME280;53640;55.838;37.184;2023-07-13T12:29:28;98267.34;;;12.99;66.81
65534;BME280;53640;55.838;37.184;2023-07-13T12:31:55;98241.19;;;12.87;66.24
65534;BME280;53640;55.838;37.184;2023-07-13T12:34:24;98231.38;;;12.86;66.42
65534;BME280;53640;55.838;37.184;2023-07-13T12:36:58;98261.09;;;12.98;66.52
65534;BME280;53640;55.838;37.184;2023-07-13T12:42:26;98257.00;;;12.95;66.72
65534;BME280;53640;55.838;37.184;2023-07-13T12:44:56;98251.28;;;12.97;66.54
65534;BME280;53640;55.838;37.184;2023-07-13T12:47:24;98231.94;;;12.88;66.40
65534;BME280;53640;55.838;37.184;2023-07-13T12:49:56;98242.59;;;12.95;66.57
65534;BME280;53640;55.838;37.184;2023-07-13T12:52:32;98224.91;;;12.87;66.45
65534;BME280;53640;55.838;37.184;2023-07-13T12:55:19;98244.22;;;12.96;66.67
65534;BME280;53640;55.838;37.184;2023-07-13T12:57:55;98239.06;;;12.94;66.51
65534;BME280;53640;55.838;37.184;2023-07-13T13:00:35;98238.53;;;12.98;66.29
65534;BME280;53640;55.838;37.184;2023-07-13T13:03:38;98235.56;;;12.99;66.73
65534;BME280;53640;55.838;37.184;2023-07-13T13:06:20;98255.41;;;13.00;66.95
65534;BME280;53640;55.838;37.184;2023-07-13T13:08:52;98244.97;;;12.86;66.86
65534;BME280;53640;55.838;37.184;2023-07-13T13:11:22;98249.94;;;12.94;66.19
65534;BME280;53640;55.838;37.184;2023-07-13T13:13:50;98236.88;;;12.91;66.61
65534;BME280;53640;55.838;37.184;2023-07-13T13:18:54;98236.06;;;12.91;66.41
65534;BME280;53640;55.838;37.184;2023-07-13T13:21:24;98228.34;;;12.78;66.89
65534;BME280;53640;55.838;37.184;2023-07-13T13:23:51;98243.63;;;12.89;66.47
65534;BME280;53640;55.838;37.184;2023-07-13T13:26:21;98220.75;;;12.80;66.61
65534;BME280;53640;55.838;37.184;2023-07-13T13:28:48;98226.75;;;12.82;66.61
65534;BME280;53640;55.838;37.184;2023-07-13T13:31:15;98236.56;;;12.88;66.74
65534;BME280;53640;55.838;37.184;2023-07-13T13:33:44;98234.59;;;12.78;66.75
65534;BME280;53640;55.838;37.184;2023-07-13T13:36:15;98249.03;;;12.84;66.65
65534;BME280;53640;55.838;37.184;2023-07-13T13:38:43;98214.66;;;12.67;66.85
65534;BME280;53640;55.838;37.184;2023-07-13T13:41:11;98250.63;;;12.80;66.76
65534;BME280;53640;55.838;37.184;2023-07-13T13:43:40;98245.72;;;12.77;67.05
65534;BME280;53640;55.838;37.184;2023-07-13T13:46:27;98177.50;;;12.36;67.03
65534;BME280;53640;55.838;37.184;2023-07-13T13:48:56;98241.03;;;12.72;66.44